Terminal Aerodrome Forecast
Issued by NWS

Home | Current Version | Previous Version | Text Only | Print | Product List | Glossary Off
Versions: 1 2 3 4 5 6 7 8 9 10 11 12 13 14 15 16 17 18 19 20 21 22 23 24 25

000
FTUS43 KGRB 252340
TAFATW
TAF
KATW 252340Z 2600/2624 13010KT P6SM OVC090
     FM260500 13009G14KT P6SM VCSH OVC050
      TEMPO 2607/2611 5SM -SHRA BR OVC025
     FM261100 14009G14KT P6SM SHRA OVC025
     FM261500 17011G19KT 3SM SHRA OVC011
     FM262100 22012G19KT 5SM SHRA OVC022=

USA.gov is the U.S. government's official web portal to all federal, state and local government web resources and services.